createdAt,value
2018-04-24T00:01:18.863Z,11.30
2018-04-24T00:03:47.164Z,9.50
2018-04-24T00:06:14.687Z,10.27
2018-04-24T00:08:42.213Z,8.27
2018-04-24T00:11:09.818Z,7.47
2018-04-24T00:13:37.284Z,7.73
2018-04-24T00:16:04.804Z,7.87
2018-04-24T00:18:32.329Z,8.20
2018-04-24T00:21:00.641Z,7.17
2018-04-24T00:23:28.143Z,6.70
2018-04-24T00:25:55.636Z,6.93
2018-04-24T00:28:23.906Z,6.73
2018-04-24T00:30:51.420Z,7.00
2018-04-24T00:33:18.932Z,4.00
2018-04-24T00:35:47.201Z,3.17
2018-04-24T00:38:14.698Z,3.57
2018-04-24T00:40:42.213Z,3.30
2018-04-24T00:43:09.706Z,3.20
2018-04-24T00:45:38.009Z,2.67
2018-04-24T00:48:05.502Z,3.30
2018-04-24T00:50:33.010Z,3.50
2018-04-24T00:53:01.314Z,4.30
2018-04-24T00:55:28.816Z,4.23
2018-04-24T00:57:56.338Z,3.50
2018-04-24T01:00:23.842Z,3.60
2018-04-24T01:02:51.334Z,3.83
2018-04-24T01:05:18.858Z,3.87
2018-04-24T01:07:46.348Z,4.10
2018-04-24T01:10:13.873Z,4.93
2018-04-24T01:12:41.371Z,4.67
2018-04-24T01:15:08.883Z,4.80
2018-04-24T01:17:36.420Z,3.77
2018-04-24T01:20:04.719Z,3.73
2018-04-24T01:22:33.191Z,3.30
2018-04-24T01:25:01.468Z,3.63
2018-04-24T01:27:29.714Z,3.97
2018-04-24T01:29:57.218Z,4.63
2018-04-24T01:32:25.492Z,4.37
2018-04-24T01:34:53.776Z,4.13
2018-04-24T01:37:22.037Z,4.13
2018-04-24T01:39:49.539Z,3.83
2018-04-24T01:42:17.043Z,4.37
2018-04-24T01:44:44.557Z,3.63
2018-04-24T01:47:12.844Z,3.50
2018-04-24T01:49:40.346Z,3.70
2018-04-24T01:52:07.854Z,3.67
2018-04-24T01:54:36.128Z,4.07
2018-04-24T01:57:04.450Z,3.90
2018-04-24T01:59:31.967Z,3.40
2018-04-24T02:01:59.463Z,2.63
2018-04-24T02:04:26.975Z,2.43
2018-04-24T02:06:54.478Z,2.30
2018-04-24T02:09:22.960Z,2.60
2018-04-24T02:11:51.216Z,2.47
2018-04-24T02:14:18.700Z,2.40
2018-04-24T02:16:46.965Z,2.70
2018-04-24T02:19:14.480Z,2.70
2018-04-24T02:21:41.983Z,2.10
2018-04-24T02:24:09.490Z,2.60
2018-04-24T02:26:36.969Z,2.47
2018-04-24T02:29:04.478Z,2.50
2018-04-24T02:31:31.986Z,2.83
2018-04-24T02:34:00.275Z,3.30
2018-04-24T02:36:27.763Z,3.00
2018-04-24T02:38:55.260Z,2.73
2018-04-24T02:41:23.531Z,2.93
2018-04-24T02:43:51.009Z,2.57
2018-04-24T02:46:19.297Z,2.27
2018-04-24T02:48:46.778Z,2.17
2018-04-24T02:51:14.901Z,2.50
2018-04-24T02:53:42.479Z,2.03
2018-04-24T02:56:09.917Z,2.73
2018-04-24T02:58:37.473Z,2.27
2018-04-24T03:01:04.978Z,2.20
2018-04-24T03:03:33.229Z,2.17
2018-04-24T03:06:00.736Z,2.50
2018-04-24T03:08:28.242Z,2.10
2018-04-24T03:10:55.764Z,2.27
2018-04-24T03:13:23.252Z,2.40
2018-04-24T03:15:50.764Z,2.20
2018-04-24T03:18:19.033Z,2.67
2018-04-24T03:20:46.542Z,2.20
2018-04-24T03:23:14.068Z,2.87
2018-04-24T03:25:41.556Z,2.77
2018-04-24T03:28:09.033Z,2.67
2018-04-24T03:30:36.526Z,2.77
2018-04-24T03:33:04.020Z,2.30
2018-04-24T03:35:31.536Z,2.37
2018-04-24T03:37:59.028Z,2.70
2018-04-24T03:40:26.516Z,2.77
2018-04-24T03:42:54.016Z,3.10
2018-04-24T03:45:21.522Z,2.80
2018-04-24T03:47:49.048Z,3.00
2018-04-24T03:50:16.558Z,3.83
2018-04-24T03:52:44.828Z,3.10
2018-04-24T03:55:12.344Z,2.90
2018-04-24T03:57:39.832Z,3.73
2018-04-24T04:00:07.344Z,2.80
2018-04-24T04:02:35.616Z,3.03
2018-04-24T04:05:03.173Z,3.13
2018-04-24T04:07:30.728Z,2.80
2018-04-24T04:09:58.193Z,3.20
2018-04-24T04:12:25.677Z,3.60
2018-04-24T04:14:53.940Z,3.17
2018-04-24T04:17:33.165Z,3.20
2018-04-24T04:20:12.529Z,2.70
2018-04-24T04:22:51.835Z,2.57
2018-04-24T04:25:19.339Z,2.53
2018-04-24T04:27:46.841Z,2.23
2018-04-24T04:30:14.355Z,2.40
2018-04-24T04:32:41.841Z,2.67
2018-04-24T04:35:09.336Z,2.37
2018-04-24T04:37:36.849Z,2.63
2018-04-24T04:40:04.357Z,2.67
2018-04-24T04:42:31.865Z,3.13
2018-04-24T04:44:59.355Z,3.60
2018-04-24T04:47:26.861Z,3.57
2018-04-24T04:49:54.370Z,3.23
2018-04-24T04:52:21.868Z,2.87
2018-04-24T04:54:49.384Z,3.27
2018-04-24T04:57:16.877Z,3.33
2018-04-24T04:59:44.388Z,3.60
2018-04-24T05:02:12.648Z,3.73
2018-04-24T05:04:40.142Z,3.93
2018-04-24T05:07:08.407Z,2.83
2018-04-24T05:09:35.904Z,3.73
2018-04-24T05:12:03.543Z,4.23
2018-04-24T05:14:31.012Z,3.83
2018-04-24T05:16:58.509Z,3.93
2018-04-24T05:19:26.018Z,3.40
2018-04-24T05:21:53.521Z,3.33
2018-04-24T05:24:21.034Z,2.47
2018-04-24T05:26:48.555Z,2.93
2018-04-24T05:29:16.053Z,2.80
2018-04-24T05:31:43.563Z,2.93
2018-04-24T05:34:11.048Z,3.10
2018-04-24T05:36:38.553Z,2.67
2018-04-24T05:39:06.074Z,2.70
2018-04-24T05:41:33.595Z,2.40
2018-04-24T05:44:01.887Z,2.93
2018-04-24T05:46:30.150Z,2.97
2018-04-24T05:48:58.419Z,3.00
2018-04-24T05:51:25.935Z,3.60
2018-04-24T05:53:53.437Z,2.90
2018-04-24T05:56:20.941Z,3.73
2018-04-24T05:58:48.435Z,3.53
2018-04-24T06:01:15.947Z,3.53
2018-04-24T06:03:43.457Z,3.97
2018-04-24T06:06:10.955Z,3.70
2018-04-24T06:08:38.473Z,3.60
2018-04-24T06:11:05.965Z,3.67
2018-04-24T06:13:33.482Z,4.20
2018-04-24T06:16:00.989Z,3.30
2018-04-24T06:18:28.492Z,3.50
2018-04-24T06:20:56.782Z,3.73
2018-04-24T06:23:25.036Z,3.40
2018-04-24T06:25:52.597Z,3.20
2018-04-24T06:28:20.170Z,3.37
2018-04-24T06:30:47.673Z,2.57
2018-04-24T06:33:15.175Z,2.67
2018-04-24T06:35:42.668Z,3.30
2018-04-24T06:38:10.967Z,3.03
2018-04-24T06:40:38.467Z,2.50
2018-04-24T06:43:05.973Z,2.60
2018-04-24T06:45:34.246Z,2.80
2018-04-24T06:48:01.745Z,2.73
2018-04-24T06:50:29.268Z,2.13
2018-04-24T06:52:56.759Z,2.90
2018-04-24T06:55:24.281Z,2.70
2018-04-24T06:57:51.787Z,2.57
2018-04-24T07:00:19.299Z,2.83
2018-04-24T07:02:46.818Z,2.83
2018-04-24T07:05:14.307Z,2.77
2018-04-24T07:07:41.807Z,2.27
2018-04-24T07:10:09.307Z,2.27
2018-04-24T07:12:36.813Z,2.20
2018-04-24T07:15:04.321Z,2.60
2018-04-24T07:17:31.809Z,2.47
2018-04-24T07:19:59.299Z,2.53
2018-04-24T07:22:26.797Z,2.80
2018-04-24T07:24:55.070Z,2.80
2018-04-24T07:27:22.558Z,2.40
2018-04-24T07:29:50.040Z,2.00
2018-04-24T07:32:17.535Z,1.83
2018-04-24T07:34:45.053Z,2.57
2018-04-24T07:37:12.651Z,2.03
2018-04-24T07:39:40.128Z,2.23
2018-04-24T07:42:07.635Z,2.10
2018-04-24T07:44:35.135Z,2.27
2018-04-24T07:47:02.640Z,2.30
2018-04-24T07:49:30.126Z,2.53
2018-04-24T07:51:57.640Z,2.30
2018-04-24T07:54:25.139Z,2.27
2018-04-24T07:56:53.398Z,2.83
2018-04-24T07:59:20.915Z,2.33
2018-04-24T08:01:48.432Z,2.47
2018-04-24T08:04:15.925Z,2.50
2018-04-24T08:06:43.423Z,2.43
2018-04-24T08:09:10.928Z,2.43
2018-04-24T08:11:39.196Z,2.70
2018-04-24T08:14:06.691Z,2.60
2018-04-24T08:16:34.218Z,2.40
2018-04-24T08:19:01.721Z,2.40
2018-04-24T08:21:30.094Z,2.63
2018-04-24T08:23:58.367Z,2.37
2018-04-24T08:26:26.629Z,3.07
2018-04-24T08:28:54.239Z,3.13
2018-04-24T08:31:21.739Z,2.37
2018-04-24T08:33:49.219Z,2.47
2018-04-24T08:36:16.717Z,2.43
2018-04-24T08:38:44.203Z,2.53
2018-04-24T08:41:11.736Z,2.43
2018-04-24T08:43:39.390Z,2.33
2018-04-24T08:46:07.670Z,1.97
2018-04-24T08:48:35.945Z,2.10
2018-04-24T08:51:04.238Z,2.37
2018-04-24T08:53:32.528Z,1.93
2018-04-24T08:56:00.023Z,2.43
2018-04-24T08:58:27.540Z,2.37
2018-04-24T09:00:55.811Z,2.50
2018-04-24T09:03:23.312Z,2.70
2018-04-24T09:05:51.625Z,2.97
2018-04-24T09:08:19.129Z,2.17
2018-04-24T09:10:47.406Z,2.17
2018-04-24T09:13:15.682Z,2.43
2018-04-24T09:15:43.933Z,2.33
2018-04-24T09:18:11.432Z,2.30
2018-04-24T09:20:39.692Z,2.10
2018-04-24T09:23:07.180Z,1.83
2018-04-24T09:25:34.675Z,1.90
2018-04-24T09:28:02.197Z,1.80
2018-04-24T09:30:30.463Z,1.70
2018-04-24T09:32:57.954Z,2.10
2018-04-24T09:35:27.360Z,2.33
2018-04-24T09:37:54.936Z,2.07
2018-04-24T09:40:22.422Z,2.00
2018-04-24T09:42:49.927Z,1.93
2018-04-24T09:45:18.201Z,1.87
2018-04-24T09:47:45.686Z,2.30
2018-04-24T09:50:13.953Z,1.70
2018-04-24T09:52:42.212Z,2.10
2018-04-24T09:55:09.717Z,2.20
2018-04-24T09:57:37.214Z,1.90
2018-04-24T10:00:04.763Z,2.27
2018-04-24T10:02:32.274Z,2.10
2018-04-24T10:04:59.761Z,2.00
2018-04-24T10:07:28.013Z,2.10
2018-04-24T10:09:55.492Z,2.50
2018-04-24T10:12:23.761Z,1.97
2018-04-24T10:14:51.272Z,2.50
2018-04-24T10:17:18.752Z,2.10
2018-04-24T10:19:46.281Z,2.60
2018-04-24T10:22:13.924Z,2.40
2018-04-24T10:24:41.413Z,2.50
2018-04-24T10:27:08.924Z,2.50
2018-04-24T10:29:36.416Z,2.20
2018-04-24T10:32:04.696Z,2.13
2018-04-24T10:34:32.193Z,2.30
2018-04-24T10:36:59.694Z,1.97
2018-04-24T10:39:27.196Z,2.63
2018-04-24T10:41:54.692Z,2.23
2018-04-24T10:44:22.201Z,2.13
2018-04-24T10:46:49.692Z,2.50
2018-04-24T10:49:17.204Z,2.27
2018-04-24T10:51:44.754Z,2.67
2018-04-24T10:54:12.255Z,2.10
2018-04-24T10:56:39.751Z,2.33
2018-04-24T10:59:07.241Z,2.37
2018-04-24T11:01:35.613Z,2.40
2018-04-24T11:04:03.176Z,2.40
2018-04-24T11:06:30.599Z,1.87
2018-04-24T11:08:58.861Z,2.60
2018-04-24T11:11:26.355Z,2.17
2018-04-24T11:13:54.617Z,2.20
2018-04-24T11:16:22.883Z,2.03
2018-04-24T11:18:50.354Z,1.80
2018-04-24T11:21:17.897Z,2.63
2018-04-24T11:23:45.436Z,2.90
2018-04-24T11:26:12.948Z,2.63
2018-04-24T11:28:40.584Z,3.00
2018-04-24T11:31:08.085Z,2.53
2018-04-24T11:33:36.389Z,2.33
2018-04-24T11:36:04.029Z,2.40
2018-04-24T11:38:31.411Z,2.80
2018-04-24T11:40:58.928Z,2.43
2018-04-24T11:43:26.445Z,2.30
2018-04-24T11:45:53.941Z,2.00
2018-04-24T11:48:21.420Z,1.90
2018-04-24T11:50:48.927Z,2.70
2018-04-24T11:53:17.244Z,2.40
2018-04-24T11:55:44.753Z,2.10
2018-04-24T11:58:13.029Z,2.50
2018-04-24T12:00:41.289Z,2.07
2018-04-24T12:03:08.793Z,2.27
2018-04-24T12:05:36.291Z,2.03
2018-04-24T12:08:03.846Z,1.80
2018-04-24T12:10:31.360Z,1.93
2018-04-24T12:12:59.640Z,2.07
2018-04-24T12:15:27.927Z,2.57
2018-04-24T12:17:55.410Z,2.10
2018-04-24T12:20:22.918Z,2.10
2018-04-24T12:25:32.643Z,2.00
2018-04-24T12:28:00.136Z,2.10
2018-04-24T12:30:27.642Z,2.00
2018-04-24T12:32:55.923Z,2.23
2018-04-24T12:35:24.187Z,1.90
2018-04-24T12:37:51.710Z,2.63
2018-04-24T12:40:19.195Z,2.10
2018-04-24T12:42:46.724Z,2.10
2018-04-24T12:45:14.231Z,2.40
2018-04-24T12:47:41.738Z,2.20
2018-04-24T12:50:09.244Z,2.00
2018-04-24T12:52:36.744Z,2.40
2018-04-24T12:55:05.009Z,2.27
2018-04-24T12:57:32.512Z,2.50
2018-04-24T13:00:00.011Z,2.30
2018-04-24T13:02:27.534Z,2.50
2018-04-24T13:04:55.035Z,2.50
2018-04-24T13:07:22.528Z,2.63
2018-04-24T13:09:50.839Z,2.50
2018-04-24T13:12:18.296Z,2.10
2018-04-24T13:14:45.824Z,2.80
2018-04-24T13:17:13.325Z,2.50
2018-04-24T13:19:40.811Z,2.40
2018-04-24T13:22:08.324Z,2.50
2018-04-24T13:24:35.815Z,2.30
2018-04-24T13:27:03.332Z,2.70
2018-04-24T13:29:30.832Z,2.50
2018-04-24T13:31:59.087Z,2.50
2018-04-24T13:34:26.588Z,2.23
2018-04-24T13:36:54.147Z,2.60
2018-04-24T13:39:21.658Z,2.87
2018-04-24T13:41:49.162Z,2.30
2018-04-24T13:44:17.415Z,2.37
2018-04-24T13:46:44.909Z,2.13
2018-04-24T13:49:12.402Z,2.40
2018-04-24T13:51:39.914Z,2.57
2018-04-24T13:54:07.384Z,2.40
2018-04-24T13:56:35.656Z,2.50
2018-04-24T13:59:03.939Z,2.33
2018-04-24T14:01:31.443Z,2.47
2018-04-24T14:03:58.954Z,2.60
2018-04-24T14:06:26.485Z,2.33
2018-04-24T14:08:53.946Z,2.40
2018-04-24T14:11:21.441Z,2.77
2018-04-24T14:13:48.936Z,2.63
2018-04-24T14:16:17.190Z,2.40
2018-04-24T14:18:44.686Z,2.40
2018-04-24T14:21:12.192Z,2.90
2018-04-24T14:23:39.693Z,2.40
2018-04-24T14:26:07.957Z,1.90
2018-04-24T14:28:35.461Z,2.10
2018-04-24T14:31:02.961Z,2.50
2018-04-24T14:33:30.451Z,2.40
2018-04-24T14:35:58.711Z,2.27
2018-04-24T14:38:26.271Z,2.27
2018-04-24T14:40:53.753Z,2.50
2018-04-24T14:43:21.241Z,2.53
2018-04-24T14:45:48.729Z,2.60
2018-04-24T14:48:16.241Z,2.20
2018-04-24T14:50:43.733Z,2.40
2018-04-24T14:53:11.250Z,2.87
2018-04-24T14:55:38.734Z,2.33
2018-04-24T14:58:07.013Z,2.00
2018-04-24T15:00:34.519Z,2.43
2018-04-24T15:03:02.015Z,2.20
2018-04-24T15:05:29.513Z,2.47
2018-04-24T15:07:57.785Z,2.50
2018-04-24T15:10:26.079Z,2.40
2018-04-24T15:12:53.608Z,2.67
2018-04-24T15:15:21.132Z,2.42
2018-04-24T15:17:48.661Z,2.50
2018-04-24T15:20:16.917Z,2.27
2018-04-24T15:22:44.414Z,2.70
2018-04-24T15:25:12.675Z,2.10
2018-04-24T15:27:41.087Z,2.33
2018-04-24T15:30:08.607Z,2.63
2018-04-24T15:32:36.099Z,2.37
2018-04-24T15:35:03.710Z,2.80
2018-04-24T15:37:31.169Z,2.53
2018-04-24T15:39:58.648Z,2.50
2018-04-24T15:42:26.179Z,2.60
2018-04-24T15:44:53.670Z,2.50
2018-04-24T15:47:21.174Z,2.50
2018-04-24T15:49:48.689Z,2.67
2018-04-24T15:52:16.183Z,2.63
2018-04-24T15:54:43.696Z,2.53
2018-04-24T15:57:11.203Z,2.60
2018-04-24T15:59:38.679Z,2.83
2018-04-24T16:02:06.937Z,2.37
2018-04-24T16:04:34.433Z,2.50
2018-04-24T16:07:02.703Z,2.60
2018-04-24T16:09:30.967Z,2.70
2018-04-24T16:11:58.453Z,3.10
2018-04-24T16:14:26.715Z,2.40
2018-04-24T16:16:54.209Z,2.73
2018-04-24T16:19:21.731Z,2.47
2018-04-24T16:21:49.211Z,2.47
2018-04-24T16:24:17.452Z,2.50
2018-04-24T16:26:44.966Z,2.40
2018-04-24T16:29:12.469Z,2.67
2018-04-24T16:31:39.989Z,2.43
2018-04-24T16:34:07.473Z,2.50
2018-04-24T16:36:34.980Z,2.13
2018-04-24T16:39:02.504Z,2.33
2018-04-24T16:41:30.000Z,2.53
2018-04-24T16:43:57.518Z,2.47
2018-04-24T16:46:25.094Z,2.40
2018-04-24T16:48:52.618Z,2.50
2018-04-24T16:51:20.082Z,2.43
2018-04-24T16:53:48.331Z,2.50
2018-04-24T16:56:16.028Z,2.47
2018-04-24T16:58:43.469Z,2.40
2018-04-24T17:01:12.474Z,2.60
2018-04-24T17:03:39.981Z,2.53
2018-04-24T17:06:07.527Z,2.40
2018-04-24T17:08:34.998Z,2.03
2018-04-24T17:11:02.488Z,2.30
2018-04-24T17:13:30.002Z,2.37
2018-04-24T17:15:58.290Z,2.87
2018-04-24T17:18:26.569Z,2.33
2018-04-24T17:20:54.874Z,2.80
2018-04-24T17:23:22.379Z,3.20
2018-04-24T17:25:49.889Z,3.00
2018-04-24T17:28:17.413Z,2.73
2018-04-24T17:30:44.977Z,3.00
2018-04-24T17:33:12.468Z,3.20
2018-04-24T17:35:40.749Z,3.03
2018-04-24T17:38:09.033Z,2.70
2018-04-24T17:40:37.297Z,3.20
2018-04-24T17:43:04.800Z,3.13
2018-04-24T17:45:32.346Z,3.23
2018-04-24T17:47:59.846Z,3.00
2018-04-24T17:50:27.357Z,2.87
2018-04-24T17:52:55.631Z,2.33
2018-04-24T17:55:23.118Z,2.40
2018-04-24T17:57:50.639Z,2.90
2018-04-24T18:00:18.153Z,2.97
2018-04-24T18:02:45.660Z,3.10
2018-04-24T18:05:13.206Z,3.50
2018-04-24T18:07:40.728Z,3.63
2018-04-24T18:10:09.001Z,3.00
2018-04-24T18:12:37.265Z,2.83
2018-04-24T18:15:04.751Z,2.87
2018-04-24T18:17:33.029Z,3.00
2018-04-24T18:20:01.305Z,2.70
2018-04-24T18:22:29.593Z,2.77
2018-04-24T18:24:57.849Z,2.50
2018-04-24T18:27:25.340Z,2.20
2018-04-24T18:29:52.838Z,2.63
2018-04-24T18:32:20.328Z,2.70
2018-04-24T18:34:47.839Z,2.50
2018-04-24T18:37:15.329Z,2.90
2018-04-24T18:39:42.833Z,3.23
2018-04-24T18:42:10.353Z,2.73
2018-04-24T18:44:37.848Z,2.90
2018-04-24T18:47:05.377Z,3.23
2018-04-24T18:49:32.885Z,3.13
2018-04-24T18:52:01.153Z,3.13
2018-04-24T18:54:28.652Z,3.00
2018-04-24T18:56:56.152Z,2.83
2018-04-24T18:59:23.695Z,2.57
2018-04-24T19:01:51.150Z,2.97
2018-04-24T19:04:18.641Z,2.40
2018-04-24T19:06:46.141Z,2.93
2018-04-24T19:09:13.647Z,2.43
2018-04-24T19:11:41.133Z,2.80
2018-04-24T19:14:14.231Z,2.47
2018-04-24T19:16:41.723Z,2.73
2018-04-24T19:19:15.719Z,3.33
2018-04-24T19:21:43.207Z,2.83
2018-04-24T19:27:24.714Z,2.90
2018-04-24T19:29:52.239Z,2.47
2018-04-24T19:32:25.423Z,2.70
2018-04-24T19:34:53.206Z,2.50
2018-04-24T19:37:21.470Z,2.90
2018-04-24T19:39:54.464Z,2.60
2018-04-24T19:42:21.944Z,2.60
2018-04-24T19:44:50.193Z,2.50
2018-04-24T19:47:17.705Z,2.93
2018-04-24T19:49:50.911Z,2.53
2018-04-24T19:52:18.653Z,2.80
2018-04-24T19:54:52.596Z,2.90
2018-04-24T19:57:20.107Z,2.67
2018-04-24T19:59:47.609Z,2.90
2018-04-24T20:02:15.096Z,2.60
2018-04-24T20:04:42.592Z,2.60
2018-04-24T20:07:10.075Z,3.00
2018-04-24T20:09:38.342Z,2.90
2018-04-24T20:12:06.609Z,2.77
2018-04-24T20:14:34.105Z,2.80
2018-04-24T20:17:01.607Z,2.80
2018-04-24T20:19:29.099Z,2.70
2018-04-24T20:21:56.615Z,2.60
2018-04-24T20:24:24.101Z,2.97
2018-04-24T20:26:51.661Z,2.97
2018-04-24T20:29:19.151Z,3.10
2018-04-24T20:31:46.681Z,2.80
2018-04-24T20:34:14.407Z,2.80
2018-04-24T20:36:42.695Z,3.20
2018-04-24T20:39:10.196Z,2.80
2018-04-24T20:41:37.703Z,2.83
2018-04-24T20:44:05.972Z,2.77
2018-04-24T20:46:33.479Z,2.80
2018-04-24T20:49:00.969Z,3.00
2018-04-24T20:51:28.468Z,2.97
2018-04-24T20:53:56.755Z,2.90
2018-04-24T20:56:25.011Z,2.60
2018-04-24T20:58:52.521Z,3.10
2018-04-24T21:01:20.005Z,2.60
2018-04-24T21:03:47.509Z,2.57
2018-04-24T21:06:15.064Z,2.80
2018-04-24T21:08:42.543Z,2.40
2018-04-24T21:11:10.048Z,2.70
2018-04-24T21:13:37.535Z,2.50
2018-04-24T21:16:05.022Z,3.30
2018-04-24T21:18:32.522Z,2.73
2018-04-24T21:21:00.311Z,2.50
2018-04-24T21:23:27.841Z,3.00
2018-04-24T21:25:56.099Z,2.70
2018-04-24T21:28:23.595Z,2.37
2018-04-24T21:30:51.091Z,2.70
2018-04-24T21:33:18.576Z,2.50
2018-04-24T21:35:46.080Z,2.87
2018-04-24T21:38:13.568Z,2.37
2018-04-24T21:40:41.135Z,2.60
2018-04-24T21:43:09.344Z,2.77
2018-04-24T21:45:36.835Z,2.97
2018-04-24T21:48:05.116Z,2.60
2018-04-24T21:50:33.384Z,2.87
2018-04-24T21:53:00.869Z,2.63
2018-04-24T21:55:28.365Z,2.60
2018-04-24T21:57:55.867Z,2.70
2018-04-24T22:00:23.378Z,2.43
2018-04-24T22:02:50.861Z,2.73
2018-04-24T22:05:18.336Z,2.33
2018-04-24T22:07:45.829Z,2.90
2018-04-24T22:10:14.093Z,2.70
2018-04-24T22:12:41.609Z,2.50
2018-04-24T22:15:09.097Z,2.50
2018-04-24T22:17:36.588Z,2.67
2018-04-24T22:20:04.087Z,2.70
2018-04-24T22:22:31.571Z,2.93
2018-04-24T22:24:59.293Z,2.57
2018-04-24T22:27:27.561Z,2.60
2018-04-24T22:29:55.057Z,2.30
2018-04-24T22:32:22.557Z,2.80
2018-04-24T22:34:50.045Z,2.70
2018-04-24T22:37:17.560Z,2.80
2018-04-24T22:39:45.055Z,2.90
2018-04-24T22:42:12.535Z,3.07
2018-04-24T22:44:40.023Z,2.70
2018-04-24T22:47:08.291Z,2.87
2018-04-24T22:49:36.557Z,3.03
2018-04-24T22:52:04.028Z,2.93
2018-04-24T22:54:31.507Z,2.97
2018-04-24T22:56:59.762Z,2.70
2018-04-24T22:59:27.279Z,2.80
2018-04-24T23:01:54.799Z,2.70
2018-04-24T23:04:22.284Z,2.90
2018-04-24T23:06:50.526Z,2.60
2018-04-24T23:09:18.020Z,2.77
2018-04-24T23:11:58.208Z,2.93
2018-04-24T23:14:37.582Z,2.70
2018-04-24T23:17:16.985Z,2.53
2018-04-24T23:19:56.290Z,2.73
2018-04-24T23:22:32.800Z,3.00
2018-04-24T23:25:00.302Z,2.93
2018-04-24T23:27:28.559Z,2.57
2018-04-24T23:29:56.055Z,2.47
2018-04-24T23:32:23.551Z,2.70
2018-04-24T23:34:51.807Z,3.03
2018-04-24T23:37:19.298Z,2.97
2018-04-24T23:39:46.795Z,3.00
2018-04-24T23:42:15.124Z,3.00
2018-04-24T23:44:42.643Z,2.83
2018-04-24T23:47:10.915Z,2.67
2018-04-24T23:49:38.423Z,3.10
2018-04-24T23:52:05.952Z,2.73
2018-04-24T23:54:33.487Z,3.00
2018-04-24T23:57:00.995Z,2.63
2018-04-24T23:59:29.273Z,3.43
